Riverside, March ARB Airport (KRIV)

NameMarch ARB Airport
CityRiverside
CountryUnited States
ICAOKRIV
IATA
Altitude468 m
CoordinatesGoogle Map
Live Air TrafficLiveATC.net
METARKRIV 180058Z 36003KT 10SM BKN019 OVC050 15/15 A3017 RMK AO2A SLP213 T01480148
2019-01-18 00:58:00 Wind: North (360°) 1.54 m/s - Visibility: 16093.4 m - Temperature: 15 °C - Dew point: 15 °C - Humidity: 100% - Pressure: 1021.67 hPa
Statistics

The table below shows the detailed information of all flights to/from Riverside, March ARB Airport (KRIV).